createdAt,value
2018-07-11T00:01:30.561Z,14.03
2018-07-11T00:04:00.523Z,13.91
2018-07-11T00:06:30.988Z,14.01
2018-07-11T00:09:01.320Z,14.07
2018-07-11T00:11:31.508Z,14.00
2018-07-11T00:14:01.551Z,14.05
2018-07-11T00:16:31.454Z,14.02
2018-07-11T00:19:01.407Z,14.03
2018-07-11T00:21:31.354Z,13.82
2018-07-11T00:24:01.263Z,13.85
2018-07-11T00:26:31.200Z,14.01
2018-07-11T00:29:01.364Z,13.95
2018-07-11T00:31:31.265Z,13.99
2018-07-11T00:34:02.209Z,13.83
2018-07-11T00:36:32.460Z,13.94
2018-07-11T00:39:02.726Z,14.04
2018-07-11T00:41:32.709Z,13.89
2018-07-11T00:44:02.995Z,14.16
2018-07-11T00:46:32.975Z,13.90
2018-07-11T00:49:02.989Z,13.90
2018-07-11T00:51:34.360Z,13.84
2018-07-11T00:54:04.494Z,13.79
2018-07-11T00:56:34.820Z,13.88
2018-07-11T00:59:24.547Z,13.86
2018-07-11T01:01:57.547Z,13.76
2018-07-11T01:04:27.546Z,13.74
2018-07-11T01:06:57.746Z,13.83
2018-07-11T01:09:28.129Z,13.79
2018-07-11T01:11:58.097Z,13.55
2018-07-11T01:14:28.309Z,13.83
2018-07-11T01:16:58.358Z,13.69
2018-07-11T01:19:28.918Z,13.74
2018-07-11T01:22:04.856Z,13.29
2018-07-11T01:24:34.767Z,13.49
2018-07-11T01:27:04.698Z,13.36
2018-07-11T01:29:35.138Z,13.72
2018-07-11T01:32:05.481Z,13.84
2018-07-11T01:34:36.343Z,13.79
2018-07-11T01:37:06.725Z,13.91
2018-07-11T01:39:37.118Z,13.79
2018-07-11T01:42:06.981Z,13.41
2018-07-11T01:44:36.891Z,13.35
2018-07-11T01:47:07.323Z,13.57
2018-07-11T01:49:37.546Z,13.49
2018-07-11T01:52:23.966Z,13.52
2018-07-11T01:54:54.271Z,13.31
2018-07-11T01:57:24.827Z,13.39
2018-07-11T01:59:54.931Z,13.18
2018-07-11T02:02:26.331Z,13.20
2018-07-11T02:04:57.032Z,13.43
2018-07-11T02:07:26.968Z,13.09
2018-07-11T02:09:56.923Z,13.56
2018-07-11T02:12:26.946Z,13.62
2018-07-11T02:15:02.106Z,13.81
2018-07-11T02:17:32.054Z,13.47
2018-07-11T02:20:02.126Z,13.22
2018-07-11T02:22:32.164Z,13.09
2018-07-11T02:25:03.516Z,13.25
2018-07-11T02:27:34.297Z,13.34
2018-07-11T02:30:05.064Z,13.15
2018-07-11T02:32:35.121Z,12.99
2018-07-11T02:35:05.468Z,13.39
2018-07-11T02:37:35.886Z,13.72
2018-07-11T02:40:06.307Z,13.77
2018-07-11T02:42:36.807Z,13.65
2018-07-11T02:45:06.708Z,13.31
2018-07-11T02:47:42.527Z,12.93
2018-07-11T02:50:13.445Z,13.13
2018-07-11T02:52:43.836Z,13.11
2018-07-11T02:55:13.627Z,13.25
2018-07-11T02:57:43.809Z,13.31
2018-07-11T03:00:13.921Z,13.53
2018-07-11T03:02:44.207Z,13.74
2018-07-11T03:05:14.698Z,13.70
2018-07-11T03:07:44.995Z,13.76
2018-07-11T03:10:15.201Z,13.71
2018-07-11T03:12:45.519Z,13.79
2018-07-11T03:15:16.138Z,13.87
2018-07-11T03:17:46.113Z,13.36
2018-07-11T03:20:16.329Z,13.26
2018-07-11T03:22:46.560Z,13.30
2018-07-11T03:25:16.459Z,13.24
2018-07-11T03:27:47.117Z,13.31
2018-07-11T03:30:17.419Z,13.27
2018-07-11T03:32:47.340Z,13.13
2018-07-11T03:35:17.512Z,13.05
2018-07-11T03:37:47.644Z,13.16
2018-07-11T03:40:17.611Z,13.39
2018-07-11T03:42:48.013Z,13.58
2018-07-11T03:45:18.905Z,13.68
2018-07-11T03:47:48.947Z,13.81
2018-07-11T03:50:19.042Z,13.84
2018-07-11T03:52:49.259Z,13.85
2018-07-11T03:55:19.523Z,13.76
2018-07-11T03:57:49.333Z,13.35
2018-07-11T04:00:19.460Z,13.11
2018-07-11T04:02:50.549Z,13.28
2018-07-11T04:05:20.820Z,13.23
2018-07-11T04:07:50.748Z,13.06
2018-07-11T04:10:20.669Z,13.13
2018-07-11T04:13:01.399Z,13.19
2018-07-11T04:15:31.283Z,13.33
2018-07-11T04:18:01.441Z,13.48
2018-07-11T04:20:31.387Z,13.66
2018-07-11T04:23:01.761Z,13.72
2018-07-11T04:25:31.964Z,13.73
2018-07-11T04:28:02.544Z,13.71
2018-07-11T04:30:32.592Z,13.06
2018-07-11T04:33:02.588Z,13.16
2018-07-11T04:35:32.506Z,13.42
2018-07-11T04:38:02.946Z,13.58
2018-07-11T04:40:33.321Z,13.35
2018-07-11T04:43:03.408Z,13.39
2018-07-11T04:45:33.916Z,13.36
2018-07-11T04:48:04.090Z,13.38
2018-07-11T04:50:34.451Z,13.12
2018-07-11T04:53:11.616Z,13.18
2018-07-11T04:55:43.758Z,13.26
2018-07-11T04:58:13.864Z,13.34
2018-07-11T05:00:43.967Z,13.26
2018-07-11T05:03:14.152Z,13.18
2018-07-11T05:05:44.224Z,13.26
2018-07-11T05:08:14.408Z,13.41
2018-07-11T05:10:44.360Z,13.50
2018-07-11T05:13:14.475Z,13.45
2018-07-11T05:15:44.517Z,13.38
2018-07-11T05:18:15.157Z,13.41
2018-07-11T05:20:46.084Z,13.60
2018-07-11T05:23:16.332Z,13.58
2018-07-11T05:25:46.563Z,13.71
2018-07-11T05:28:16.392Z,13.75
2018-07-11T05:30:46.613Z,13.66
2018-07-11T05:33:16.731Z,13.53
2018-07-11T05:35:47.081Z,13.35
2018-07-11T05:38:17.249Z,13.60
2018-07-11T05:40:47.279Z,13.61
2018-07-11T05:43:19.009Z,13.62
2018-07-11T05:45:49.063Z,13.73
2018-07-11T05:48:19.040Z,13.60
2018-07-11T05:50:48.952Z,13.67
2018-07-11T05:53:19.009Z,13.80
2018-07-11T05:55:49.171Z,13.74
2018-07-11T05:58:19.123Z,13.79
2018-07-11T06:00:49.840Z,13.82
2018-07-11T06:03:19.907Z,13.87
2018-07-11T06:05:50.069Z,13.88
2018-07-11T06:08:20.054Z,13.90
2018-07-11T06:10:50.344Z,13.86
2018-07-11T06:13:20.230Z,13.84
2018-07-11T06:15:51.617Z,13.91
2018-07-11T06:18:22.996Z,13.93
2018-07-11T06:20:52.980Z,13.95
2018-07-11T06:23:22.973Z,14.10
2018-07-11T06:25:53.172Z,14.12
2018-07-11T06:28:23.337Z,14.12
2018-07-11T06:30:53.242Z,14.20
2018-07-11T06:33:23.129Z,14.23
2018-07-11T06:35:52.924Z,14.27
2018-07-11T06:38:22.820Z,14.26
2018-07-11T06:40:52.719Z,14.28
2018-07-11T06:43:22.559Z,14.33
2018-07-11T06:45:53.082Z,14.38
2018-07-11T06:48:23.639Z,14.34
2018-07-11T06:50:53.853Z,14.40
2018-07-11T06:53:24.171Z,14.50
2018-07-11T06:55:54.008Z,14.54
2018-07-11T06:58:24.304Z,14.61
2018-07-11T07:00:55.898Z,14.66
2018-07-11T07:03:25.863Z,14.82
2018-07-11T07:05:55.747Z,14.99
2018-07-11T07:08:25.651Z,15.04
2018-07-11T07:10:55.915Z,15.08
2018-07-11T07:13:25.716Z,15.16
2018-07-11T07:15:57.174Z,15.17
2018-07-11T07:18:27.176Z,15.26
2018-07-11T07:20:57.428Z,15.32
2018-07-11T07:23:28.127Z,15.37
2018-07-11T07:25:58.197Z,15.38
2018-07-11T07:28:28.395Z,15.46
2018-07-11T07:30:58.302Z,15.46
2018-07-11T07:33:28.313Z,15.56
2018-07-11T07:35:58.464Z,15.53
2018-07-11T07:38:29.988Z,15.65
2018-07-11T07:41:00.268Z,15.55
2018-07-11T07:43:30.573Z,15.49
2018-07-11T07:46:01.270Z,15.64
2018-07-11T07:48:31.992Z,15.55
2018-07-11T07:51:02.282Z,15.84
2018-07-11T07:53:32.908Z,16.05
2018-07-11T07:56:03.015Z,16.08
2018-07-11T07:58:33.431Z,16.00
2018-07-11T08:01:03.490Z,16.21
2018-07-11T08:03:36.519Z,16.24
2018-07-11T08:06:07.983Z,16.17
2018-07-11T08:08:38.197Z,16.20
2018-07-11T08:11:08.255Z,16.25
2018-07-11T08:13:38.123Z,16.31
2018-07-11T08:16:07.951Z,16.39
2018-07-11T08:18:37.866Z,16.43
2018-07-11T08:21:08.655Z,16.42
2018-07-11T08:23:55.032Z,16.49
2018-07-11T08:26:41.520Z,16.59
2018-07-11T08:32:16.591Z,16.65
2018-07-11T08:39:10.844Z,16.59
2018-07-11T08:45:59.739Z,16.78
2018-07-11T08:51:53.114Z,16.91
2018-07-11T08:57:40.090Z,17.41
2018-07-11T09:01:29.858Z,17.29
2018-07-11T09:04:20.223Z,17.34
2018-07-11T09:07:06.673Z,17.82
2018-07-11T09:09:51.787Z,17.84
2018-07-11T09:12:37.087Z,17.67
2018-07-11T09:16:38.271Z,17.77
2018-07-11T09:19:43.959Z,17.87
2018-07-11T09:22:46.526Z,17.85
2018-07-11T09:25:16.787Z,17.89
2018-07-11T09:27:46.510Z,18.02
2018-07-11T09:30:16.383Z,18.00
2018-07-11T09:32:46.247Z,18.04
2018-07-11T09:35:16.183Z,17.85
2018-07-11T09:37:46.008Z,18.05
2018-07-11T09:40:15.908Z,18.17
2018-07-11T09:42:45.779Z,18.02
2018-07-11T09:45:16.121Z,18.08
2018-07-11T09:47:46.083Z,18.51
2018-07-11T09:50:16.438Z,18.50
2018-07-11T09:52:46.359Z,18.74
2018-07-11T09:55:16.781Z,18.70
2018-07-11T09:57:46.966Z,18.62
2018-07-11T10:02:25.363Z,18.67
2018-07-11T10:04:55.371Z,18.80
2018-07-11T10:07:25.498Z,18.93
2018-07-11T10:09:55.390Z,18.91
2018-07-11T10:12:25.425Z,19.00
2018-07-11T10:14:55.206Z,19.11
2018-07-11T10:17:25.008Z,19.03
2018-07-11T10:19:55.064Z,19.08
2018-07-11T10:22:24.873Z,19.30
2018-07-11T10:24:54.840Z,19.20
2018-07-11T10:27:24.693Z,19.16
2018-07-11T10:29:54.882Z,19.24
2018-07-11T10:32:24.791Z,19.32
2018-07-11T10:34:54.748Z,19.28
2018-07-11T10:37:24.856Z,19.42
2018-07-11T10:39:54.906Z,19.41
2018-07-11T10:42:25.021Z,19.49
2018-07-11T10:44:54.997Z,19.41
2018-07-11T10:47:25.164Z,19.37
2018-07-11T10:49:55.227Z,19.39
2018-07-11T10:52:25.487Z,19.42
2018-07-11T10:54:55.640Z,19.45
2018-07-11T10:57:25.623Z,19.21
2018-07-11T10:59:55.610Z,19.13
2018-07-11T11:02:25.435Z,19.02
2018-07-11T11:04:55.431Z,19.02
2018-07-11T11:07:25.463Z,19.04
2018-07-11T11:09:55.437Z,19.07
2018-07-11T11:12:25.383Z,19.03
2018-07-11T11:14:55.498Z,19.15
2018-07-11T11:17:25.460Z,19.22
2018-07-11T11:19:55.728Z,19.31
2018-07-11T11:22:25.890Z,19.37
2018-07-11T11:24:55.713Z,19.49
2018-07-11T11:27:25.656Z,19.61
2018-07-11T11:29:55.591Z,19.68
2018-07-11T11:32:26.377Z,19.74
2018-07-11T11:34:56.262Z,19.87
2018-07-11T11:37:26.463Z,19.70
2018-07-11T11:39:56.316Z,19.70
2018-07-11T11:42:26.557Z,19.55
2018-07-11T11:44:56.147Z,19.51
2018-07-11T11:47:26.039Z,19.60
2018-07-11T11:49:56.987Z,19.55
2018-07-11T11:52:26.839Z,19.48
2018-07-11T11:54:56.824Z,19.54
2018-07-11T11:57:26.783Z,19.48
2018-07-11T11:59:57.077Z,19.44
2018-07-11T12:02:27.133Z,19.34
2018-07-11T12:04:57.538Z,19.41
2018-07-11T12:07:27.502Z,19.18
2018-07-11T12:09:57.251Z,18.72
2018-07-11T12:12:27.221Z,18.49
2018-07-11T12:14:57.099Z,18.13
2018-07-11T12:17:26.869Z,18.33
2018-07-11T12:19:56.792Z,18.38
2018-07-11T12:22:27.336Z,18.20
2018-07-11T12:24:57.275Z,18.45
2018-07-11T12:27:27.278Z,18.36
2018-07-11T12:29:57.259Z,18.37
2018-07-11T12:32:27.294Z,18.38
2018-07-11T12:34:57.155Z,18.51
2018-07-11T12:37:27.277Z,18.56
2018-07-11T12:39:57.187Z,18.58
2018-07-11T12:42:27.175Z,18.58
2018-07-11T12:44:57.622Z,18.58
2018-07-11T12:47:32.686Z,18.57
2018-07-11T12:50:02.611Z,18.51
2018-07-11T12:52:32.571Z,18.16
2018-07-11T12:55:02.570Z,17.98
2018-07-11T12:57:32.520Z,17.91
2018-07-11T13:00:02.487Z,18.07
2018-07-11T13:02:33.456Z,17.97
2018-07-11T13:05:03.655Z,17.81
2018-07-11T13:07:33.702Z,17.79
2018-07-11T13:10:03.594Z,18.01
2018-07-11T13:12:33.473Z,18.16
2018-07-11T13:15:03.361Z,18.27
2018-07-11T13:17:33.194Z,18.26
2018-07-11T13:20:03.099Z,18.38
2018-07-11T13:22:33.007Z,18.39
2018-07-11T13:25:02.926Z,18.37
2018-07-11T13:27:32.835Z,18.38
2018-07-11T13:30:02.643Z,18.41
2018-07-11T13:32:32.412Z,18.42
2018-07-11T13:35:02.378Z,18.44
2018-07-11T13:37:32.359Z,18.44
2018-07-11T13:40:02.237Z,18.43
2018-07-11T13:42:32.184Z,18.42
2018-07-11T13:45:02.019Z,18.43
2018-07-11T13:47:31.758Z,18.42
2018-07-11T13:50:01.644Z,18.41
2018-07-11T13:52:31.728Z,18.42
2018-07-11T13:55:01.540Z,18.43
2018-07-11T13:57:31.446Z,18.34
2018-07-11T14:00:01.433Z,18.37
2018-07-11T14:02:31.906Z,18.38
2018-07-11T14:05:01.754Z,18.07
2018-07-11T14:07:31.650Z,17.61
2018-07-11T14:10:01.893Z,17.87
2018-07-11T14:12:31.934Z,17.61
2018-07-11T14:15:01.984Z,17.66
2018-07-11T14:17:31.791Z,17.63
2018-07-11T14:20:01.647Z,17.50
2018-07-11T14:22:31.523Z,17.47
2018-07-11T14:25:01.915Z,17.86
2018-07-11T14:27:36.154Z,17.92
2018-07-11T14:30:06.039Z,17.81
2018-07-11T14:32:36.015Z,17.76
2018-07-11T14:35:05.990Z,17.77
2018-07-11T14:37:35.766Z,17.85
2018-07-11T14:40:05.709Z,17.76
2018-07-11T14:42:36.029Z,17.82
2018-07-11T14:45:05.971Z,17.95
2018-07-11T14:47:40.774Z,18.03
2018-07-11T14:50:10.623Z,18.04
2018-07-11T14:52:40.472Z,18.09
2018-07-11T14:55:10.419Z,18.04
2018-07-11T14:57:40.214Z,18.09
2018-07-11T15:00:10.265Z,17.90
2018-07-11T15:02:40.089Z,17.92
2018-07-11T15:05:09.861Z,18.02
2018-07-11T15:07:39.646Z,17.88
2018-07-11T15:10:09.411Z,17.82
2018-07-11T15:12:39.546Z,17.83
2018-07-11T15:15:09.751Z,17.98
2018-07-11T15:17:39.570Z,18.08
2018-07-11T15:20:09.714Z,18.10
2018-07-11T15:22:39.602Z,18.10
2018-07-11T15:25:09.426Z,17.94
2018-07-11T15:27:39.266Z,17.83
2018-07-11T15:30:09.214Z,17.78
2018-07-11T15:32:39.261Z,17.84
2018-07-11T15:35:09.238Z,18.02
2018-07-11T15:37:39.322Z,18.07
2018-07-11T15:40:09.162Z,17.98
2018-07-11T15:42:39.055Z,17.81
2018-07-11T15:45:09.034Z,17.76
2018-07-11T15:47:42.975Z,17.79
2018-07-11T15:50:12.869Z,17.89
2018-07-11T15:52:42.738Z,17.62
2018-07-11T15:55:12.679Z,17.86
2018-07-11T15:57:52.194Z,17.91
2018-07-11T16:00:29.911Z,18.03
2018-07-11T16:03:03.383Z,17.97
2018-07-11T16:05:33.637Z,17.88
2018-07-11T16:08:05.841Z,17.98
2018-07-11T16:10:46.985Z,17.86
2018-07-11T16:16:10.163Z,17.91
2018-07-11T16:18:40.293Z,18.03
2018-07-11T16:21:10.134Z,17.92
2018-07-11T16:23:40.143Z,17.96
2018-07-11T16:26:10.007Z,17.88
2018-07-11T16:28:40.598Z,17.96
2018-07-11T16:31:10.418Z,17.91
2018-07-11T16:33:40.385Z,17.94
2018-07-11T16:36:10.179Z,18.01
2018-07-11T16:38:42.213Z,17.94
2018-07-11T16:41:12.172Z,18.05
2018-07-11T16:43:42.102Z,17.89
2018-07-11T16:46:12.319Z,18.00
2018-07-11T16:48:42.324Z,18.05
2018-07-11T16:51:12.161Z,17.84
2018-07-11T16:53:42.139Z,17.94
2018-07-11T16:56:12.044Z,17.87
2018-07-11T16:58:52.431Z,18.01
2018-07-11T17:01:30.284Z,18.01
2018-07-11T17:04:00.512Z,17.90
2018-07-11T17:06:30.531Z,17.91
2018-07-11T17:09:01.561Z,18.07
2018-07-11T17:11:31.539Z,18.06
2018-07-11T17:14:03.456Z,17.89
2018-07-11T17:16:45.077Z,17.98
2018-07-11T17:19:22.082Z,17.89
2018-07-11T17:21:52.015Z,18.02
2018-07-11T17:24:22.722Z,17.99
2018-07-11T17:26:56.717Z,17.96
2018-07-11T17:29:30.316Z,18.02
2018-07-11T17:32:11.061Z,17.92
2018-07-11T17:34:41.262Z,17.99
2018-07-11T17:37:11.943Z,17.97
2018-07-11T17:39:53.366Z,18.04
2018-07-11T17:42:26.802Z,17.93
2018-07-11T17:45:18.113Z,17.84
2018-07-11T17:48:06.698Z,18.00
2018-07-11T17:50:38.066Z,17.95
2018-07-11T17:53:18.768Z,18.02
2018-07-11T17:56:13.219Z,18.09
2018-07-11T17:58:58.083Z,18.09
2018-07-11T18:01:38.736Z,18.07
2018-07-11T18:04:36.759Z,17.97
2018-07-11T18:07:15.383Z,17.82
2018-07-11T18:09:57.091Z,17.80
2018-07-11T18:12:34.123Z,17.97
2018-07-11T18:15:24.270Z,17.97
2018-07-11T18:20:31.113Z,17.90
2018-07-11T18:23:33.611Z,18.06
2018-07-11T18:26:16.675Z,18.08
2018-07-11T18:29:02.413Z,18.03
2018-07-11T18:33:50.710Z,18.11
2018-07-11T18:36:38.253Z,18.03
2018-07-11T18:41:33.493Z,18.03
2018-07-11T18:44:21.850Z,17.94
2018-07-11T18:47:08.727Z,18.02
2018-07-11T18:50:14.882Z,18.04
2018-07-11T18:52:53.599Z,18.03
2018-07-11T18:55:40.501Z,17.93
2018-07-11T19:00:40.903Z,17.97
2018-07-11T19:03:28.395Z,17.72
2018-07-11T19:08:24.882Z,17.76
2018-07-11T19:11:09.576Z,17.41
2018-07-11T19:13:46.905Z,17.55
2018-07-11T19:16:55.213Z,17.59
2018-07-11T19:19:37.523Z,17.45
2018-07-11T19:24:24.942Z,17.57
2018-07-11T19:27:06.587Z,17.64
2018-07-11T19:33:52.135Z,17.50
2018-07-11T19:37:37.098Z,17.49
2018-07-11T19:40:19.967Z,17.46
2018-07-11T19:47:06.807Z,17.43
2018-07-11T19:50:22.606Z,17.43
2018-07-11T19:53:10.194Z,17.30
2018-07-11T19:56:46.456Z,17.33
2018-07-11T19:59:16.497Z,17.36
2018-07-11T20:01:47.066Z,17.35
2018-07-11T20:04:16.892Z,17.32
2018-07-11T20:06:46.745Z,17.40
2018-07-11T20:09:16.639Z,17.34
2018-07-11T20:11:46.464Z,17.33
2018-07-11T20:14:16.392Z,17.27
2018-07-11T20:16:46.318Z,17.13
2018-07-11T20:19:16.238Z,17.21
2018-07-11T20:21:46.125Z,17.18
2018-07-11T20:24:15.947Z,17.25
2018-07-11T20:26:46.935Z,17.27
2018-07-11T20:29:16.748Z,17.20
2018-07-11T20:31:46.638Z,17.20
2018-07-11T20:34:16.552Z,17.19
2018-07-11T20:36:46.366Z,17.19
2018-07-11T20:39:16.147Z,17.13
2018-07-11T20:41:46.168Z,17.12
2018-07-11T20:44:16.040Z,17.16
2018-07-11T20:46:46.005Z,17.12
2018-07-11T20:49:20.934Z,17.16
2018-07-11T20:51:50.743Z,17.18
2018-07-11T20:54:20.788Z,17.18
2018-07-11T20:56:50.706Z,17.24
2018-07-11T20:59:36.828Z,17.26
2018-07-11T21:04:30.807Z,17.26
2018-07-11T21:10:26.314Z,17.08
2018-07-11T21:13:24.088Z,17.03
2018-07-11T21:18:19.826Z,17.11
2018-07-11T21:20:49.734Z,17.19
2018-07-11T21:23:19.494Z,17.13
2018-07-11T21:25:49.380Z,17.20
2018-07-11T21:28:21.451Z,17.18
2018-07-11T21:30:51.464Z,17.13
2018-07-11T21:33:21.289Z,17.15
2018-07-11T21:35:51.018Z,17.22
2018-07-11T21:38:21.107Z,17.32
2018-07-11T21:40:51.005Z,17.32
2018-07-11T21:43:20.917Z,17.31
2018-07-11T21:45:50.858Z,17.35
2018-07-11T21:48:22.052Z,17.17
2018-07-11T21:50:51.743Z,17.25
2018-07-11T21:53:21.578Z,17.34
2018-07-11T21:55:51.432Z,17.39
2018-07-11T21:58:21.338Z,17.38
2018-07-11T22:00:51.194Z,17.26
2018-07-11T22:03:21.022Z,17.18
2018-07-11T22:05:50.831Z,17.14
2018-07-11T22:08:20.642Z,17.10
2018-07-11T22:10:50.468Z,17.07
2018-07-11T22:13:20.215Z,17.10
2018-07-11T22:15:50.206Z,16.95
2018-07-11T22:18:36.735Z,16.93
2018-07-11T22:21:05.531Z,17.08
2018-07-11T22:23:33.405Z,17.02
2018-07-11T22:26:01.490Z,17.06
2018-07-11T22:28:30.081Z,17.03
2018-07-11T22:30:57.973Z,16.98
2018-07-11T22:33:26.974Z,16.92
2018-07-11T22:35:56.056Z,16.89
2018-07-11T22:38:24.994Z,16.93
2018-07-11T22:40:52.895Z,16.71
2018-07-11T22:43:20.760Z,16.75
2018-07-11T22:45:48.794Z,16.72
2018-07-11T22:48:17.228Z,16.71
2018-07-11T22:50:45.693Z,16.70
2018-07-11T22:53:13.618Z,16.82
2018-07-11T22:55:41.656Z,16.90
2018-07-11T22:58:09.509Z,16.92
2018-07-11T23:00:37.404Z,16.87
2018-07-11T23:03:05.385Z,16.84
2018-07-11T23:05:33.391Z,16.93
2018-07-11T23:08:01.293Z,16.97
2018-07-11T23:10:29.167Z,16.94
2018-07-11T23:12:57.783Z,16.92
2018-07-11T23:15:26.193Z,16.95
2018-07-11T23:17:54.080Z,16.94
2018-07-11T23:20:22.395Z,16.93
2018-07-11T23:22:50.226Z,16.93
2018-07-11T23:25:18.203Z,16.92
2018-07-11T23:27:46.066Z,16.95
2018-07-11T23:30:19.414Z,16.94
2018-07-11T23:32:47.666Z,17.05
2018-07-11T23:35:15.526Z,17.09
2018-07-11T23:37:43.726Z,17.12
2018-07-11T23:40:11.630Z,17.09
2018-07-11T23:42:39.521Z,16.89
2018-07-11T23:45:07.440Z,16.88
2018-07-11T23:47:35.298Z,16.81
2018-07-11T23:50:03.190Z,16.89
2018-07-11T23:52:31.073Z,16.97
2018-07-11T23:54:58.985Z,16.98
2018-07-11T23:57:27.787Z,17.02
2018-07-11T23:59:56.602Z,17.05
